Time;durP1;ratioP1;P1;durP2;ratioP2;P2;SDS_P1;SDS_P2;PMS_P1;PMS_P2;Temp;Humidity;BMP_temperature;BMP_pressure;BME280_temperature;BME280_humidity;BME280_pressure;Samples;Min_cycle;Max_cycle;Signal;HPM_P1;HPM_P2
2021/07/31 00:02:25;;;;;;;28.27;12.18;;;;;;;23.59;86.24;96902.38;5110531;28;20073;-78
2021/07/31 00:04:51;;;;;;;33.33;11.73;;;;;;;23.52;87.45;96906.91;5116845;27;20057;-79
2021/07/31 00:07:17;;;;;;;24.73;11.45;;;;;;;23.40;88.58;96897.53;5112862;28;20023;-78
2021/07/31 00:09:43;;;;;;;29.80;11.30;;;;;;;23.41;89.29;96900.03;5093683;28;20030;-78
2021/07/31 00:12:08;;;;;;;29.65;11.32;;;;;;;23.38;86.88;96894.09;5127572;28;20023;-79
2021/07/31 00:14:34;;;;;;;28.05;12.35;;;;;;;23.34;86.85;96909.16;5132009;27;20023;-78
2021/07/31 00:17:02;;;;;;;24.17;12.63;;;;;;;23.33;86.75;96902.84;5131022;28;20049;-78
2021/07/31 00:19:28;;;;;;;30.73;12.20;;;;;;;23.21;87.29;96899.78;5113545;28;20043;-78
2021/07/31 00:21:53;;;;;;;21.52;12.20;;;;;;;23.15;88.76;96895.06;5116562;28;20031;-78
2021/07/31 00:24:19;;;;;;;24.80;12.85;;;;;;;23.04;90.51;96906.44;5110311;28;20059;-78
2021/07/31 00:26:44;;;;;;;23.20;12.93;;;;;;;23.08;90.76;96910.50;5093496;28;20479;-78
2021/07/31 00:29:10;;;;;;;31.27;12.35;;;;;;;23.02;90.29;96905.78;5110310;28;20372;-77
2021/07/31 00:31:35;;;;;;;32.65;12.35;;;;;;;22.96;90.64;96901.09;5130711;28;20034;-79
2021/07/31 00:34:01;;;;;;;30.63;12.35;;;;;;;22.79;91.51;96901.47;5132200;28;20084;-79
2021/07/31 00:36:26;;;;;;;24.52;12.50;;;;;;;22.80;91.97;96906.72;5120460;28;20034;-78
2021/07/31 00:38:52;;;;;;;29.17;12.45;;;;;;;22.75;92.90;96914.63;5110343;28;20027;-79
2021/07/31 00:41:17;;;;;;;27.70;13.45;;;;;;;22.78;93.05;96916.13;5110284;28;20418;-78
2021/07/31 00:43:43;;;;;;;25.02;11.65;;;;;;;22.85;91.33;96912.47;5110366;28;20471;-79
2021/07/31 00:46:09;;;;;;;23.85;11.80;;;;;;;22.86;90.27;96911.41;5110066;28;20055;-79
2021/07/31 00:48:34;;;;;;;27.35;12.73;;;;;;;22.83;89.89;96911.78;5104247;28;20133;-79
2021/07/31 00:51:00;;;;;;;23.88;12.25;;;;;;;22.72;90.32;96895.91;5115343;27;20019;-79
2021/07/31 00:53:25;;;;;;;26.27;12.13;;;;;;;22.68;91.23;96908.19;5117416;27;20034;-77
2021/07/31 00:58:35;;;;;;;28.35;12.70;;;;;;;22.51;93.79;96906.66;5135768;27;20038;-78
2021/07/31 01:01:02;;;;;;;35.42;13.07;;;;;;;22.58;92.66;96902.13;5117820;27;20023;-78
2021/07/31 01:03:27;;;;;;;26.27;12.13;;;;;;;22.59;92.52;96890.19;5137955;27;20033;-78
2021/07/31 01:05:54;;;;;;;25.00;12.68;;;;;;;22.55;93.05;96892.44;5136485;27;20475;-77
2021/07/31 01:08:19;;;;;;;33.38;13.30;;;;;;;22.58;93.10;96896.69;5114310;28;20510;-77
2021/07/31 01:10:45;;;;;;;31.33;13.10;;;;;;;22.60;93.02;96895.47;5113950;28;20108;-77
2021/07/31 01:13:11;;;;;;;25.90;12.98;;;;;;;22.60;93.41;96891.91;5122385;27;20053;-78
2021/07/31 01:15:36;;;;;;;25.30;11.93;;;;;;;22.55;93.35;96887.00;5114650;27;20088;-77
2021/07/31 01:18:02;;;;;;;29.05;13.27;;;;;;;22.62;92.54;96884.38;5113707;28;20434;-78
2021/07/31 01:20:27;;;;;;;33.22;13.02;;;;;;;22.64;92.89;96882.34;5114755;28;20027;-78
2021/07/31 01:22:53;;;;;;;29.02;12.23;;;;;;;22.56;93.61;96883.25;5113570;28;20057;-77
2021/07/31 01:25:20;;;;;;;34.03;13.10;;;;;;;22.56;94.29;96877.78;5113612;28;20027;-77
2021/07/31 01:27:45;;;;;;;27.25;13.40;;;;;;;22.53;94.16;96878.16;5113376;28;20020;-77
2021/07/31 01:30:11;;;;;;;23.25;12.52;;;;;;;22.47;94.97;96872.59;5113661;28;20543;-77
2021/07/31 01:32:37;;;;;;;31.90;12.98;;;;;;;22.46;95.30;96876.34;5096230;28;20379;-78
2021/07/31 01:35:03;;;;;;;28.92;13.43;;;;;;;22.45;95.99;96869.22;5115146;28;20370;-77
2021/07/31 01:37:30;;;;;;;22.92;12.55;;;;;;;22.43;96.19;96869.41;5113426;28;20513;-76
2021/07/31 01:39:56;;;;;;;29.45;13.10;;;;;;;22.49;95.16;96870.53;5114907;28;20019;-77
2021/07/31 01:42:21;;;;;;;29.00;13.30;;;;;;;22.41;95.44;96865.16;5113396;28;20066;-77
2021/07/31 01:44:47;;;;;;;35.30;13.15;;;;;;;22.48;95.48;96868.84;5096049;28;20023;-78
2021/07/31 01:47:13;;;;;;;41.33;12.68;;;;;;;22.49;95.05;96870.53;5113299;28;20110;-78
2021/07/31 01:49:38;;;;;;;27.50;13.57;;;;;;;22.44;95.56;96867.53;5113000;28;20087;-78
2021/07/31 01:52:04;;;;;;;28.65;12.80;;;;;;;22.47;94.28;96869.88;5114305;28;20031;-76
2021/07/31 01:54:29;;;;;;;25.13;12.93;;;;;;;22.50;93.36;96873.09;5113105;28;20028;-77
2021/07/31 01:56:55;;;;;;;31.92;13.25;;;;;;;22.39;93.77;96880.88;5112859;28;20099;-78
2021/07/31 01:59:20;;;;;;;28.73;13.18;;;;;;;22.34;94.55;96870.50;5121883;27;20031;-77
2021/07/31 02:01:46;;;;;;;32.95;13.13;;;;;;;22.32;96.51;96877.19;5132880;27;20034;-77
2021/07/31 02:04:11;;;;;;;33.10;14.48;;;;;;;22.15;97.49;96871.00;5133430;27;20030;-77
2021/07/31 02:06:37;;;;;;;36.08;12.68;;;;;;;22.10;98.38;96876.19;5115811;27;20063;-77
2021/07/31 02:09:03;;;;;;;29.45;13.20;;;;;;;21.91;100.00;96874.78;5112773;28;20535;-77
2021/07/31 02:11:28;;;;;;;33.60;14.57;;;;;;;21.73;100.00;96879.66;5112678;27;20032;-78
2021/07/31 02:13:54;;;;;;;31.27;14.13;;;;;;;21.55;100.00;96871.78;5103814;28;20468;-78
2021/07/31 02:16:24;;;;;;;31.70;15.02;;;;;;;21.53;100.00;96873.81;5114050;28;20027;-78
2021/07/31 02:18:50;;;;;;;28.33;13.93;;;;;;;21.49;100.00;96879.81;5112378;28;20056;-78
2021/07/31 02:21:15;;;;;;;26.23;14.05;;;;;;;21.53;100.00;96868.38;5113070;28;20035;-77
2021/07/31 02:23:41;;;;;;;23.88;14.02;;;;;;;21.56;100.00;96873.47;5113392;28;20463;-79
2021/07/31 02:26:06;;;;;;;26.20;13.93;;;;;;;21.58;100.00;96870.56;5114314;28;20107;-78
2021/07/31 02:28:32;;;;;;;35.10;15.15;;;;;;;21.59;100.00;96875.00;5112347;28;20035;-77
2021/07/31 02:30:57;;;;;;;29.30;13.32;;;;;;;21.63;100.00;96879.03;5113547;28;20034;-78
2021/07/31 02:33:23;;;;;;;30.48;14.70;;;;;;;21.68;100.00;96876.63;5112283;28;20039;-78
2021/07/31 02:35:48;;;;;;;26.27;14.15;;;;;;;21.62;100.00;96875.47;5123031;27;20027;-78
2021/07/31 02:38:14;;;;;;;30.45;13.98;;;;;;;21.64;100.00;96880.75;5132589;27;20072;-78
2021/07/31 02:40:40;;;;;;;27.52;14.45;;;;;;;21.74;100.00;96883.22;5132358;27;20083;-78
2021/07/31 02:43:05;;;;;;;31.02;13.55;;;;;;;21.72;100.00;96880.69;5115672;27;20026;-78
2021/07/31 02:45:31;;;;;;;37.63;13.98;;;;;;;21.74;99.60;96886.81;5134005;27;20474;-76
2021/07/31 02:47:56;;;;;;;27.85;13.82;;;;;;;21.71;99.10;96876.28;5133524;27;20462;-78
2021/07/31 02:50:22;;;;;;;27.00;14.32;;;;;;;21.64;99.35;96886.19;5133883;27;20034;-78
2021/07/31 02:52:47;;;;;;;32.70;14.68;;;;;;;21.61;100.00;96887.41;5114966;27;20106;-78
2021/07/31 02:55:13;;;;;;;25.27;13.27;;;;;;;21.60;99.76;96893.84;5132545;27;20048;-78
2021/07/31 02:57:39;;;;;;;28.25;13.25;;;;;;;21.64;98.95;96897.06;5131600;27;20023;-78
2021/07/31 03:00:06;;;;;;;29.10;13.02;;;;;;;21.65;98.83;96887.91;5111703;28;20032;-78
2021/07/31 03:02:31;;;;;;;25.83;12.88;;;;;;;21.58;99.37;96886.91;5111863;28;20023;-78
2021/07/31 03:04:57;;;;;;;31.88;14.60;;;;;;;21.51;100.00;96888.63;5094358;28;20069;-78
2021/07/31 03:07:22;;;;;;;38.15;14.45;;;;;;;21.57;100.00;96901.53;5094496;28;20038;-78
2021/07/31 03:09:48;;;;;;;28.55;13.82;;;;;;;21.65;99.61;96890.63;5130055;27;20023;-78
2021/07/31 03:12:14;;;;;;;33.33;13.93;;;;;;;21.73;99.07;96906.88;5132053;27;20037;-78
2021/07/31 03:14:40;;;;;;;25.95;12.98;;;;;;;21.76;98.69;96897.50;5131386;27;20037;-78
2021/07/31 03:17:06;;;;;;;29.95;13.45;;;;;;;21.86;98.48;96907.16;5127906;27;20107;-76
2021/07/31 03:19:31;;;;;;;30.80;14.88;;;;;;;21.83;98.48;96912.09;5094215;28;20075;-76
2021/07/31 03:21:57;;;;;;;33.78;14.23;;;;;;;21.76;99.00;96905.66;5111232;28;20538;-76
2021/07/31 03:24:22;;;;;;;35.97;14.18;;;;;;;21.77;98.59;96902.78;5112407;28;20024;-79
2021/07/31 03:26:48;;;;;;;36.05;15.52;;;;;;;21.74;99.24;96913.19;5095308;27;20034;-77
2021/07/31 03:29:13;;;;;;;28.90;13.43;;;;;;;21.62;99.93;96918.19;5131565;27;20019;-77
2021/07/31 03:31:39;;;;;;;28.10;14.00;;;;;;;21.49;100.00;96915.19;5131607;27;20074;-77
2021/07/31 03:34:05;;;;;;;31.58;13.82;;;;;;;21.50;100.00;96911.47;5114304;27;20062;-77
2021/07/31 03:36:30;;;;;;;31.27;14.07;;;;;;;21.59;100.00;96921.28;5117394;27;20050;-77
2021/07/31 03:38:56;;;;;;;24.30;14.07;;;;;;;21.64;100.00;96929.75;5113275;27;20039;-78
2021/07/31 03:41:21;;;;;;;37.88;13.63;;;;;;;21.67;100.00;96934.81;5131434;27;20049;-78
2021/07/31 03:43:47;;;;;;;33.63;14.43;;;;;;;21.53;100.00;96935.59;5133300;27;20024;-78
2021/07/31 03:46:12;;;;;;;40.83;14.88;;;;;;;21.55;100.00;96930.81;5114527;27;20045;-79
2021/07/31 03:48:38;;;;;;;30.00;14.00;;;;;;;21.60;100.00;96931.13;5114519;27;20030;-78
2021/07/31 03:51:03;;;;;;;30.58;14.65;;;;;;;21.76;99.53;96931.03;5114346;28;20034;-78
2021/07/31 03:53:29;;;;;;;25.70;13.23;;;;;;;21.78;98.39;96931.69;5131199;27;20038;-78
2021/07/31 03:55:54;;;;;;;30.48;15.13;;;;;;;21.79;98.69;96930.66;5112398;28;20031;-78
2021/07/31 03:58:20;;;;;;;28.70;13.98;;;;;;;21.90;97.71;96938.44;5110685;28;20035;-79
2021/07/31 04:00:45;;;;;;;32.75;16.88;;;;;;;21.94;96.64;96926.19;5119002;27;20035;-77
2021/07/31 04:03:11;;;;;;;36.88;13.63;;;;;;;21.98;96.87;96935.69;5110802;28;20376;-77
2021/07/31 04:05:40;;;;;;;32.53;14.25;;;;;;;22.03;96.85;96930.53;5110787;28;20049;-78
2021/07/31 04:08:06;;;;;;;26.13;14.82;;;;;;;22.23;95.27;96941.81;5110602;28;20032;-77
2021/07/31 04:10:33;;;;;;;40.90;15.32;;;;;;;22.29;94.99;96937.50;5110622;28;20015;-78
2021/07/31 04:12:58;;;;;;;42.33;14.43;;;;;;;22.35;94.49;96934.91;5093535;28;20141;-77
2021/07/31 04:15:24;;;;;;;42.17;14.80;;;;;;;22.46;93.72;96936.31;5111967;28;20055;-80
2021/07/31 04:17:49;;;;;;;32.72;14.80;;;;;;;22.69;91.97;96937.19;5111431;27;20079;-75
2021/07/31 04:20:15;;;;;;;24.48;13.38;;;;;;;22.81;91.04;96941.16;5112296;28;20019;-84
2021/07/31 04:22:41;;;;;;;40.97;14.77;;;;;;;22.77;90.57;96934.38;5110531;28;20088;-84
2021/07/31 04:25:07;;;;;;;45.42;15.73;;;;;;;22.91;90.12;96940.88;5105998;28;20482;-84
2021/07/31 04:27:33;;;;;;;30.45;14.95;;;;;;;22.98;89.27;96942.66;5099614;28;20054;-83
2021/07/31 04:29:59;;;;;;;33.30;14.68;;;;;;;23.07;88.71;96944.25;5100165;28;20426;-83
2021/07/31 04:32:25;;;;;;;33.40;13.80;;;;;;;23.48;86.27;96949.28;5098043;28;20065;-77
2021/07/31 04:34:50;;;;;;;29.88;13.77;;;;;;;24.25;81.36;96954.03;5114463;28;20063;-77
2021/07/31 04:37:16;;;;;;;31.88;16.05;;;;;;;24.87;77.64;96964.28;5115595;28;20046;-78
2021/07/31 04:39:41;;;;;;;37.65;14.38;;;;;;;25.07;75.60;96959.81;5121629;27;20023;-76
2021/07/31 04:42:07;;;;;;;30.80;14.50;;;;;;;24.56;78.16;96967.34;5117506;27;20068;-77
2021/07/31 04:44:33;;;;;;;33.90;15.38;;;;;;;24.43;78.91;96972.69;5135085;27;20098;-77
2021/07/31 04:46:58;;;;;;;28.70;14.90;;;;;;;24.33;79.85;96965.88;5134642;27;20027;-78
2021/07/31 04:49:24;;;;;;;38.63;17.58;;;;;;;24.38;79.21;96972.44;5134902;27;20427;-78
2021/07/31 04:51:49;;;;;;;41.70;17.80;;;;;;;24.41;79.29;96974.78;5134945;27;20451;-78
2021/07/31 04:54:15;;;;;;;38.90;17.55;;;;;;;24.30;79.92;96971.72;5134704;27;20371;-77
2021/07/31 04:56:41;;;;;;;33.15;15.23;;;;;;;24.48;79.28;96983.06;5119625;27;20023;-77
2021/07/31 04:59:07;;;;;;;36.13;14.77;;;;;;;24.54;78.55;96980.41;5117137;27;20023;-78
2021/07/31 05:01:33;;;;;;;35.72;14.77;;;;;;;24.60;78.13;96985.09;5135873;27;20023;-79
2021/07/31 05:03:58;;;;;;;35.38;14.93;;;;;;;24.86;77.36;96989.09;5117101;27;20030;-79
2021/07/31 05:06:24;;;;;;;37.13;14.68;;;;;;;25.07;76.22;96992.66;5130117;27;20379;-78
2021/07/31 05:08:50;;;;;;;119.40;18.70;;;;;;;25.24;75.08;96994.06;5113769;28;20077;-80
2021/07/31 05:11:18;;;;;;;29.52;14.52;;;;;;;25.43;73.96;96989.75;5122170;27;20031;-81
2021/07/31 05:13:44;;;;;;;102.40;19.95;;;;;;;25.62;72.92;96991.81;5097198;28;20027;-81
2021/07/31 05:16:14;;;;;;;47.70;14.70;;;;;;;25.73;72.43;96993.97;5096414;28;20031;-80
2021/07/31 05:18:40;;;;;;;42.10;15.05;;;;;;;25.90;71.76;97002.69;5113433;28;20047;-80
2021/07/31 05:21:07;;;;;;;40.30;14.70;;;;;;;25.91;71.76;97001.63;5113204;28;20046;-80
2021/07/31 05:23:33;;;;;;;35.03;15.27;;;;;;;25.97;72.05;97002.69;5096541;28;20497;-80
2021/07/31 05:26:07;;;;;;;51.38;14.57;;;;;;;26.57;69.55;97001.88;5096855;28;20031;-80
2021/07/31 05:28:33;;;;;;;42.47;16.50;;;;;;;27.38;65.57;97014.38;5095891;28;20509;-82
2021/07/31 05:30:58;;;;;;;64.75;15.13;;;;;;;28.87;59.63;97018.72;5121951;27;20047;-79
2021/07/31 05:33:27;;;;;;;41.05;14.52;;;;;;;30.81;53.60;97008.81;5135525;27;20019;-83
2021/07/31 05:35:53;;;;;;;350.58;24.95;;;;;;;31.36;51.33;97029.63;5100143;28;20019;-82
2021/07/31 05:38:18;;;;;;;74.90;15.25;;;;;;;30.72;52.50;97024.88;5112866;28;20034;-81
2021/07/31 05:40:44;;;;;;;56.60;14.57;;;;;;;30.34;52.68;97030.66;5120864;27;20055;-82
2021/07/31 05:43:09;;;;;;;251.88;24.15;;;;;;;31.35;50.44;97041.75;5116589;27;20039;-79
2021/07/31 05:45:35;;;;;;;96.25;15.90;;;;;;;32.43;47.83;97044.88;5133734;27;20447;-80
2021/07/31 05:48:00;;;;;;;116.60;16.05;;;;;;;32.72;46.21;97037.47;5133744;27;20033;-79
2021/07/31 05:50:26;;;;;;;55.95;13.18;;;;;;;33.90;44.23;97061.53;5133601;27;20023;-78
2021/07/31 05:52:52;;;;;;;32.67;13.32;;;;;;;33.04;45.32;97054.44;5135437;27;20021;-79
2021/07/31 05:55:17;;;;;;;48.15;17.48;;;;;;;34.27;43.16;97057.09;5115235;27;20028;-78
2021/07/31 05:57:43;;;;;;;61.30;42.08;;;;;;;35.35;40.87;97043.09;5114083;28;20486;-79
2021/07/31 06:00:09;;;;;;;47.33;12.00;;;;;;;35.49;39.58;97048.25;5095535;28;20042;-78
2021/07/31 06:02:35;;;;;;;128.68;15.70;;;;;;;35.04;41.02;97056.97;5117364;27;20068;-82
2021/07/31 06:05:04;;;;;;;29.13;13.52;;;;;;;35.81;39.68;97054.66;5133536;27;20031;-81
2021/07/31 06:07:55;;;;;;;55.05;21.58;;;;;;;35.98;38.93;97051.72;5112262;28;20027;-83
2021/07/31 06:10:31;;;;;;;41.55;13.35;;;;;;;35.98;38.53;97035.00;5114020;28;20478;-80
2021/07/31 06:19:01;;;;;;;105.20;36.58;;;;;;;36.24;37.86;97018.19;5109823;28;20449;-81
2021/07/31 06:21:29;;;;;;;134.77;26.80;;;;;;;37.99;35.73;97037.63;5104873;27;20055;-82
2021/07/31 06:24:16;;;;;;;;;;;;;;;;;;;;;
2021/07/31 06:26:57;;;;;;;46.00;12.68;;;;;;;38.51;34.32;97040.03;5127767;27;20029;-81
2021/07/31 06:29:28;;;;;;;35.25;12.45;;;;;;;39.72;32.14;97011.31;5135880;27;20031;-82
2021/07/31 06:35:28;;;;;;;238.93;20.45;;;;;;;40.91;30.62;97054.38;5122061;27;20122;-82
2021/07/31 06:38:43;;;;;;;71.63;13.73;;;;;;;38.63;32.89;97017.31;5123544;27;20054;-81
2021/07/31 06:42:08;;;;;;;;;;;;;;;;;;;;;
2021/07/31 06:44:34;;;;;;;62.28;14.15;;;;;;;37.21;35.69;97038.94;5118579;27;20577;-79
2021/07/31 06:46:59;;;;;;;204.07;19.75;;;;;;;37.40;36.13;97040.09;5125076;27;20057;-79
2021/07/31 06:49:25;;;;;;;40.38;13.32;;;;;;;38.69;33.52;97033.78;5134224;27;20019;-78
2021/07/31 06:51:51;;;;;;;44.15;13.02;;;;;;;39.51;32.69;97040.59;5133857;27;20030;-78
2021/07/31 06:54:17;;;;;;;29.42;10.88;;;;;;;40.02;31.41;97027.03;5132492;27;20084;-80
2021/07/31 06:56:42;;;;;;;45.85;12.13;;;;;;;39.97;31.72;97029.88;5132278;27;20031;-78
2021/07/31 06:59:08;;;;;;;31.58;12.20;;;;;;;39.44;32.59;97032.53;5134166;27;20115;-79
2021/07/31 07:01:33;;;;;;;28.90;10.73;;;;;;;40.16;31.50;97036.44;5133152;27;20034;-78
2021/07/31 07:03:59;;;;;;;39.42;12.75;;;;;;;40.69;29.83;97030.81;5133464;27;20034;-81
2021/07/31 07:06:24;;;;;;;23.15;10.57;;;;;;;40.26;30.21;97025.13;5133386;27;20034;-81
2021/07/31 07:08:50;;;;;;;161.23;17.70;;;;;;;40.28;31.05;97025.66;5113694;27;20494;-81
2021/07/31 07:11:17;;;;;;;36.53;11.27;;;;;;;41.18;29.49;97019.22;5094507;28;20162;-82
2021/07/31 07:13:43;;;;;;;24.77;10.77;;;;;;;40.01;29.76;97016.94;5129518;27;20031;-81
2021/07/31 07:16:10;;;;;;;30.88;10.55;;;;;;;40.54;29.53;97017.81;5109711;28;20042;-81
2021/07/31 07:18:35;;;;;;;45.05;11.93;;;;;;;41.47;28.39;97028.34;5102991;28;20471;-80
2021/07/31 07:21:08;;;;;;;35.42;11.88;;;;;;;40.90;29.02;97021.81;5115257;27;20023;-81
2021/07/31 07:23:35;;;;;;;44.97;11.40;;;;;;;41.46;28.68;97027.50;5123277;27;20031;-81
2021/07/31 07:26:00;;;;;;;33.17;13.57;;;;;;;41.29;28.38;97020.72;5111205;28;20466;-80
2021/07/31 07:28:26;;;;;;;32.05;11.57;;;;;;;41.82;28.34;97022.16;5111104;28;20092;-80
2021/07/31 07:30:52;;;;;;;67.70;12.45;;;;;;;42.29;27.39;97017.38;5113182;27;20039;-80
2021/07/31 07:33:17;;;;;;;40.30;11.02;;;;;;;43.15;26.38;97027.72;5131570;27;20114;-81
2021/07/31 07:35:43;;;;;;;23.98;9.48;;;;;;;43.59;24.98;97016.50;5131389;27;20031;-79
2021/07/31 07:38:08;;;;;;;31.85;9.77;;;;;;;43.48;25.20;97011.44;5110165;28;20460;-81
2021/07/31 07:40:34;;;;;;;256.38;18.50;;;;;;;43.99;24.49;97013.84;5110447;27;20391;-79
2021/07/31 07:43:01;;;;;;;124.28;16.48;;;;;;;44.68;23.22;97009.41;5091085;28;20439;-78
2021/07/31 07:45:27;;;;;;;279.58;26.55;;;;;;;44.84;22.88;96999.31;5108278;28;20114;-79
2021/07/31 07:47:52;;;;;;;86.60;17.35;;;;;;;45.12;23.21;97002.72;5128173;27;20114;-81
2021/07/31 07:50:18;;;;;;;26.17;9.23;;;;;;;44.44;24.25;97006.13;5128750;27;20031;-81
2021/07/31 07:52:43;;;;;;;82.90;12.32;;;;;;;44.62;24.24;97008.72;5129211;27;20496;-79
2021/07/31 07:55:09;;;;;;;41.63;12.38;;;;;;;43.91;24.70;96989.22;5128353;27;20038;-79
2021/07/31 07:57:38;;;;;;;287.65;26.45;;;;;;;43.92;24.71;97005.00;5112435;27;20085;-80
2021/07/31 08:00:06;;;;;;;203.30;17.27;;;;;;;44.42;24.47;97002.81;5123544;27;20140;-80
2021/07/31 08:02:32;;;;;;;317.45;21.50;;;;;;;45.02;23.82;97009.53;5120371;27;20039;-80
2021/07/31 08:04:57;;;;;;;302.85;20.73;;;;;;;45.64;22.39;97007.25;5129093;27;20482;-79
2021/07/31 08:07:23;;;;;;;176.93;16.35;;;;;;;45.55;22.76;97002.78;5130548;27;20058;-79
2021/07/31 08:09:49;;;;;;;265.15;19.65;;;;;;;45.26;22.31;97001.41;5119369;27;20028;-78
2021/07/31 08:12:14;;;;;;;266.38;21.38;;;;;;;45.72;22.90;96995.13;5090234;28;20027;-79
2021/07/31 08:14:40;;;;;;;342.98;22.77;;;;;;;45.43;23.17;97000.63;5102498;28;20477;-79
2021/07/31 08:17:05;;;;;;;67.55;10.75;;;;;;;45.74;22.68;96997.63;5108668;28;20043;-80
2021/07/31 08:19:31;;;;;;;78.88;11.27;;;;;;;46.12;22.55;97001.41;5114758;28;20051;-81
2021/07/31 08:22:11;;;;;;;48.05;10.85;;;;;;;46.50;21.65;96994.97;5103025;27;20419;-79
2021/07/31 08:24:36;;;;;;;38.88;10.07;;;;;;;45.04;23.16;96986.59;5067989;28;20506;-79
2021/07/31 08:27:02;;;;;;;47.22;10.93;;;;;;;44.67;23.72;96990.81;5084358;28;20039;-79
2021/07/31 08:29:27;;;;;;;177.25;16.63;;;;;;;45.65;22.73;96985.47;5081860;28;20028;-79
2021/07/31 08:31:53;;;;;;;120.88;14.75;;;;;;;44.62;23.33;96982.47;5087960;28;20031;-80
2021/07/31 08:34:19;;;;;;;64.68;11.05;;;;;;;45.42;23.11;96982.00;5099416;28;20032;-88
2021/07/31 08:36:44;;;;;;;42.60;10.13;;;;;;;44.17;24.19;96973.31;5075575;28;20036;-88
2021/07/31 08:39:11;;;;;;;40.03;9.10;;;;;;;44.56;23.39;96978.97;5080555;28;20053;-86
2021/07/31 08:41:36;;;;;;;35.10;10.25;;;;;;;45.24;22.96;96969.00;5084803;28;20020;-88
2021/07/31 08:44:02;;;;;;;106.57;13.93;;;;;;;45.71;22.59;96972.84;5077586;28;20588;-88
2021/07/31 08:46:37;;;;;;;63.97;11.30;;;;;;;46.53;24.09;96988.63;5078207;28;20094;-87
2021/07/31 08:49:05;;;;;;;46.30;9.32;;;;;;;46.61;22.05;96982.91;5089175;28;20042;-87
2021/07/31 08:51:31;;;;;;;28.77;9.02;;;;;;;47.67;20.61;96977.91;5092621;28;20100;-87
2021/07/31 08:54:00;;;;;;;27.60;10.07;;;;;;;47.63;20.67;96976.91;5070617;28;20514;-87
2021/07/31 08:56:26;;;;;;;31.58;10.40;;;;;;;45.59;21.87;96970.69;5077726;28;20031;-87
2021/07/31 08:58:51;;;;;;;32.20;10.05;;;;;;;44.06;23.51;96963.44;5078189;28;20036;-86
2021/07/31 09:02:15;;;;;;;;;;;;;;;;;;;;;
2021/07/31 09:08:57;;;;;;;26.17;8.73;;;;;;;44.60;23.81;96936.81;5098499;28;20028;-89
2021/07/31 09:12:08;;;;;;;24.02;9.90;;;;;;;44.22;24.53;96931.69;5093382;28;20035;-92
2021/07/31 09:15:10;;;;;;;;;;;;;;;;;;;;;
2021/07/31 09:17:38;;;;;;;20.88;8.57;;;;;;;45.94;22.49;96956.47;5034961;28;20017;-88
2021/07/31 09:20:36;;;;;;;24.50;8.48;;;;;;;45.04;23.14;96941.41;5077076;28;20508;-89
2021/07/31 09:23:01;;;;;;;21.48;7.93;;;;;;;45.09;22.99;96956.19;5095835;28;20032;-87
2021/07/31 09:25:27;;;;;;;30.90;8.90;;;;;;;45.12;22.85;96954.69;5096421;28;20069;-88
2021/07/31 09:27:52;;;;;;;39.88;10.65;;;;;;;44.98;22.59;96952.00;5075104;28;20031;-89
2021/07/31 09:30:18;;;;;;;105.93;12.85;;;;;;;45.63;22.23;96942.53;5090847;28;20020;-89
2021/07/31 09:32:44;;;;;;;176.45;16.88;;;;;;;46.68;21.33;96945.56;5072395;28;20040;-87
2021/07/31 09:35:23;;;;;;;222.70;20.00;;;;;;;47.62;20.54;96956.25;5055319;28;20105;-87
2021/07/31 09:37:50;;;;;;;460.85;35.38;;;;;;;46.82;21.06;96957.53;5065255;28;20479;-86
2021/07/31 09:40:27;;;;;;;342.38;27.13;;;;;;;47.98;19.77;96949.06;5068060;28;20127;-86
2021/07/31 09:42:53;;;;;;;61.95;10.73;;;;;;;47.49;19.94;96948.00;5058854;28;20025;-86
2021/07/31 09:45:20;;;;;;;58.85;11.27;;;;;;;48.00;19.28;96946.69;5092109;28;20024;-86
2021/07/31 09:48:33;;;;;;;;;;;;;;;;;;;;;
2021/07/31 09:55:02;;;;;;;;;;;;;;;;;;;;;
2021/07/31 09:57:29;;;;;;;311.30;26.35;;;;;;;49.12;18.67;96924.16;5090195;28;20038;-89
2021/07/31 10:00:00;;;;;;;42.00;9.35;;;;;;;48.68;18.00;96922.31;5067012;28;20036;-88
2021/07/31 10:02:47;;;;;;;46.17;9.55;;;;;;;48.77;17.92;96914.47;5080374;28;20055;-88
2021/07/31 10:05:43;;;;;;;24.90;8.90;;;;;;;46.51;19.99;96900.38;5074189;28;20036;-90
2021/07/31 10:08:13;;;;;;;28.80;9.60;;;;;;;44.70;21.58;96903.44;5056042;28;20040;-88
2021/07/31 10:10:41;;;;;;;42.85;11.88;;;;;;;45.08;21.43;96909.31;5069140;28;20027;-87
2021/07/31 10:13:07;;;;;;;193.18;19.30;;;;;;;46.14;20.10;96905.69;5061387;28;20040;-88
2021/07/31 10:15:33;;;;;;;82.20;11.05;;;;;;;46.41;20.37;96895.88;5071340;28;20096;-87
2021/07/31 10:17:59;;;;;;;46.67;9.93;;;;;;;44.42;21.90;96902.03;5066448;28;20518;-87
2021/07/31 10:20:29;;;;;;;34.45;9.70;;;;;;;45.10;21.33;96889.22;5084457;28;20044;-88
2021/07/31 10:22:56;;;;;;;53.30;13.43;;;;;;;44.64;21.67;96887.81;5067141;28;20023;-86
2021/07/31 10:25:25;;;;;;;210.48;19.25;;;;;;;43.91;22.77;96870.78;5063701;28;20041;-88
2021/07/31 10:27:55;;;;;;;109.40;16.40;;;;;;;44.31;22.23;96880.91;5062417;28;20111;-87
2021/07/31 10:30:34;;;;;;;40.43;9.07;;;;;;;44.83;21.57;96879.03;5063112;28;20094;-87
2021/07/31 10:33:01;;;;;;;199.50;18.20;;;;;;;45.42;21.05;96879.38;5075899;28;20038;-87
2021/07/31 10:35:35;;;;;;;98.43;12.82;;;;;;;45.38;20.97;96878.41;5067371;28;20093;-85
2021/07/31 10:38:10;;;;;;;442.63;39.00;;;;;;;45.50;21.14;96881.38;5063352;28;20032;-87
2021/07/31 10:40:41;;;;;;;112.28;13.80;;;;;;;46.88;20.18;96882.47;5059799;28;20403;-87
2021/07/31 10:43:08;;;;;;;382.08;26.58;;;;;;;46.72;20.37;96876.56;5086799;28;20028;-87
2021/07/31 10:45:34;;;;;;;816.78;55.47;;;;;;;46.67;20.56;96870.28;5056898;28;20503;-87
2021/07/31 10:48:05;;;;;;;60.10;12.45;;;;;;;46.16;20.61;96860.91;5059466;28;20040;-87
2021/07/31 10:50:31;;;;;;;35.05;10.20;;;;;;;47.57;19.74;96862.88;5066542;28;20017;-87
2021/07/31 10:52:56;;;;;;;41.22;11.10;;;;;;;48.08;19.07;96874.81;5080067;28;20028;-88
2021/07/31 10:55:46;;;;;;;22.42;9.00;;;;;;;48.19;19.63;96864.63;5080565;28;20036;-87
2021/07/31 10:58:18;;;;;;;24.70;8.27;;;;;;;48.43;19.20;96858.16;5106135;28;20028;-86
2021/07/31 11:00:47;;;;;;;21.52;8.55;;;;;;;49.57;18.07;96849.09;5058183;28;20036;-87
2021/07/31 11:03:23;;;;;;;20.02;8.32;;;;;;;49.63;17.93;96861.91;5086286;28;20032;-87
2021/07/31 11:05:51;;;;;;;210.82;19.40;;;;;;;49.99;17.48;96858.88;5084169;28;20489;-87
2021/07/31 11:08:23;;;;;;;906.05;95.40;;;;;;;48.00;18.93;96862.38;5077061;28;20090;-87
2021/07/31 11:10:51;;;;;;;199.93;17.10;;;;;;;48.30;19.51;96857.34;5091353;28;20085;-87
2021/07/31 11:13:16;;;;;;;323.60;26.02;;;;;;;49.29;18.31;96852.78;5082266;28;20402;-87
2021/07/31 11:16:00;;;;;;;213.77;22.08;;;;;;;49.54;18.19;96853.50;5082650;28;20024;-84
2021/07/31 11:18:49;;;;;;;306.05;24.58;;;;;;;49.01;18.66;96846.25;5079830;28;20115;-84
2021/07/31 11:21:24;;;;;;;86.93;11.60;;;;;;;49.08;18.95;96855.00;5078582;28;20078;-84
2021/07/31 11:23:57;;;;;;;70.63;11.30;;;;;;;49.13;18.73;96851.91;5084258;28;20089;-85
2021/07/31 11:26:44;;;;;;;31.70;8.82;;;;;;;48.36;19.29;96855.94;5085214;28;20028;-83
2021/07/31 11:29:21;;;;;;;80.72;11.68;;;;;;;48.26;19.60;96848.72;5086541;28;20035;-84
2021/07/31 11:32:14;;;;;;;87.07;13.68;;;;;;;47.09;20.38;96849.28;5066913;28;20028;-84
2021/07/31 11:34:45;;;;;;;59.40;10.23;;;;;;;47.31;20.52;96846.09;5074339;28;20103;-83
2021/07/31 11:37:10;;;;;;;;;;;;;;;48.51;19.31;96846.69;5089549;28;20457;-84
2021/07/31 11:39:37;;;;;;;524.03;42.22;;;;;;;49.52;18.59;96855.06;5087255;28;19915;-84
2021/07/31 11:42:03;;;;;;;158.55;19.15;;;;;;;49.12;18.83;96836.03;5088667;28;20499;-84
2021/07/31 11:44:30;;;;;;;60.28;11.00;;;;;;;47.66;20.21;96838.06;5053194;28;20049;-84
2021/07/31 11:46:57;;;;;;;54.50;11.82;;;;;;;48.01;19.81;96841.34;5060723;28;20535;-84
2021/07/31 11:49:30;;;;;;;24.90;9.00;;;;;;;49.21;18.76;96836.69;5068220;28;20025;-85
2021/07/31 11:51:57;;;;;;;145.23;18.45;;;;;;;49.21;18.46;96838.72;5070105;28;20033;-83